X  Κλείσε Στοιχεία αεροπορικών μετεωρολογικών δεδομένων METAR     EDDM Munich Airport
θερμοκρασία
86°F θερμοκρασία
61°F Σημείο δρόσου
43% Υγρασία



Ανεμος
1 MPH
2 KM/H
0 M/S
1 KTS



Ηρεμία
V
Τρέχουσες συνθήκες

Σαφή Σαφή
πίεση 1014.9 (hPa) - 29.97 (inHg)
Ορατότητα 6 (μίλι) - 9.7 (km)
Aεροδρόμιο
Κωδικός αεροδρομίου EDDM

Τοποθεσία: Munich Airport
Απόσταση: 73 (mi)

Metar:
EDDM 191550Z AUTO VRB01KT CAVOK 30/16 Q1015 NOSIG

ώρα: 19-06-2024 15:50 CEST